Time;durP1;ratioP1;P1;durP2;ratioP2;P2;SDS_P1;SDS_P2;PMS_P1;PMS_P2;Temp;Humidity;BMP_temperature;BMP_pressure;BME280_temperature;BME280_humidity;BME280_pressure;Samples;Min_cycle;Max_cycle;Signal;HPM_P1;HPM_P2
2023/04/07 00:01:17;;;;;;;28.88;20.00;;;;;;;;;;4874156;29;20080;-65
2023/04/07 00:03:43;;;;;;;33.03;21.60;;;;;;;;;;4880339;29;20048;-66
2023/04/07 00:06:10;;;;;;;29.05;19.88;;;;;;;;;;4888154;29;20498;-65
2023/04/07 00:08:38;;;;;;;32.78;20.27;;;;;;;;;;4888352;29;20057;-66
2023/04/07 00:11:04;;;;;;;27.02;18.85;;;;;;;;;;4877718;29;20060;-65
2023/04/07 00:13:31;;;;;;;30.70;20.25;;;;;;;;;;4861816;29;20098;-67
2023/04/07 00:15:57;;;;;;;28.52;18.98;;;;;;;;;;4875448;29;20498;-66
2023/04/07 00:18:23;;;;;;;27.23;18.13;;;;;;;;;;4887662;29;20056;-65
2023/04/07 00:20:50;;;;;;;31.45;17.58;;;;;;;;;;4897103;29;20058;-66
2023/04/07 00:23:16;;;;;;;28.45;17.30;;;;;;;;;;4886518;29;20056;-65
2023/04/07 00:25:43;;;;;;;29.73;17.48;;;;;;;;;;4878806;29;20120;-65
2023/04/07 00:28:09;;;;;;;26.83;16.23;;;;;;;;;;4866207;29;20048;-65
2023/04/07 00:30:35;;;;;;;24.88;16.35;;;;;;;;;;4872994;29;20056;-65
2023/04/07 00:33:01;;;;;;;25.10;15.95;;;;;;;;;;4864997;29;20044;-65
2023/04/07 00:35:28;;;;;;;26.02;15.18;;;;;;;;;;4888473;29;20064;-65
2023/04/07 00:37:54;;;;;;;25.38;15.48;;;;;;;;;;4884785;29;20091;-66
2023/04/07 00:40:21;;;;;;;28.35;15.38;;;;;;;;;;4880277;29;20057;-65
2023/04/07 00:42:47;;;;;;;27.55;15.55;;;;;;;;;;4878290;29;20507;-65
2023/04/07 00:45:13;;;;;;;27.85;15.02;;;;;;;;;;4873838;29;20064;-66
2023/04/07 00:47:40;;;;;;;28.10;16.05;;;;;;;;;;4889128;29;20059;-65
2023/04/07 00:50:07;;;;;;;27.27;15.98;;;;;;;;;;4876189;29;20453;-65
2023/04/07 00:52:33;;;;;;;28.38;16.80;;;;;;;;;;4888556;29;20492;-65
2023/04/07 00:54:59;;;;;;;24.70;15.07;;;;;;;;;;4882462;29;20056;-67
2023/04/07 00:57:26;;;;;;;26.92;15.27;;;;;;;;;;4862762;29;20581;-66
2023/04/07 00:59:53;;;;;;;24.13;14.48;;;;;;;;;;4903494;29;20135;-65
2023/04/07 01:02:32;;;;;;;28.38;15.18;;;;;;;;;;4885206;29;20062;-65
2023/04/07 01:05:11;;;;;;;23.60;14.77;;;;;;;;;;4886346;29;20520;-66
2023/04/07 01:07:56;;;;;;;27.15;13.90;;;;;;;;;;4886443;29;20564;-68
2023/04/07 01:10:26;;;;;;;20.85;11.73;;;;;;;;;;4869248;29;20406;-65
2023/04/07 01:13:01;;;;;;;23.70;14.63;;;;;;;;;;4879923;29;20092;-66
2023/04/07 01:15:29;;;;;;;24.63;13.65;;;;;;;;;;4896314;29;20151;-65
2023/04/07 01:18:03;;;;;;;23.23;12.90;;;;;;;;;;4893212;29;20417;-65
2023/04/07 01:20:31;;;;;;;20.77;12.07;;;;;;;;;;4877774;29;20109;-65
2023/04/07 01:23:00;;;;;;;20.90;11.73;;;;;;;;;;4886437;29;20067;-67
2023/04/07 01:25:45;;;;;;;19.30;11.90;;;;;;;;;;4875598;29;20089;-64
2023/04/07 01:28:15;;;;;;;20.88;12.18;;;;;;;;;;4890910;29;20503;-66
2023/04/07 01:30:42;;;;;;;22.48;12.82;;;;;;;;;;4887185;29;20480;-66
2023/04/07 01:33:09;;;;;;;18.23;9.85;;;;;;;;;;4879913;29;20066;-65
2023/04/07 01:35:37;;;;;;;23.15;11.88;;;;;;;;;;4872943;29;20055;-67
2023/04/07 01:38:05;;;;;;;18.70;11.25;;;;;;;;;;4875722;29;20045;-66
2023/04/07 01:40:32;;;;;;;18.73;11.52;;;;;;;;;;4887125;29;20044;-65
2023/04/07 01:42:59;;;;;;;18.65;11.50;;;;;;;;;;4882881;29;20049;-65
2023/04/07 01:45:26;;;;;;;23.73;12.02;;;;;;;;;;4886907;29;20097;-64
2023/04/07 01:47:53;;;;;;;18.48;11.02;;;;;;;;;;4882475;29;20052;-66
2023/04/07 01:50:20;;;;;;;17.67;10.52;;;;;;;;;;4881489;29;20498;-65
2023/04/07 01:52:46;;;;;;;19.90;11.18;;;;;;;;;;4877126;29;20046;-65
2023/04/07 01:55:13;;;;;;;20.40;10.48;;;;;;;;;;4865681;29;20053;-65
2023/04/07 01:57:39;;;;;;;19.98;11.52;;;;;;;;;;4885520;29;20060;-65
2023/04/07 02:00:06;;;;;;;26.00;12.75;;;;;;;;;;4878643;29;20049;-65
2023/04/07 02:02:35;;;;;;;19.05;9.63;;;;;;;;;;4883479;29;20108;-65
2023/04/07 02:05:04;;;;;;;18.75;10.95;;;;;;;;;;4876032;29;20056;-65
2023/04/07 02:07:35;;;;;;;18.40;10.68;;;;;;;;;;4881388;29;20056;-66
2023/04/07 02:10:03;;;;;;;18.15;10.23;;;;;;;;;;4889745;29;20044;-65
2023/04/07 02:12:31;;;;;;;20.40;10.25;;;;;;;;;;4884644;29;20196;-65
2023/04/07 02:14:59;;;;;;;20.70;11.25;;;;;;;;;;4890753;29;20414;-65
2023/04/07 02:17:27;;;;;;;21.23;11.50;;;;;;;;;;4876122;29;20048;-67
2023/04/07 02:19:54;;;;;;;22.92;11.82;;;;;;;;;;4885150;29;20067;-66
2023/04/07 02:22:21;;;;;;;20.17;11.20;;;;;;;;;;4888787;29;20413;-65
2023/04/07 02:24:47;;;;;;;21.67;11.13;;;;;;;;;;4882590;29;21189;-65
2023/04/07 02:27:13;;;;;;;19.73;10.25;;;;;;;;;;4889958;29;20127;-66
2023/04/07 02:29:40;;;;;;;24.65;12.32;;;;;;;;;;4893439;29;20084;-65
2023/04/07 02:32:06;;;;;;;22.08;10.90;;;;;;;;;;4879382;29;20055;-67
2023/04/07 02:34:32;;;;;;;19.92;10.45;;;;;;;;;;4884161;29;20159;-65
2023/04/07 02:36:59;;;;;;;20.60;10.93;;;;;;;;;;4889269;29;20108;-66
2023/04/07 02:39:26;;;;;;;15.95;8.82;;;;;;;;;;4887952;29;20367;-64
2023/04/07 02:41:52;;;;;;;17.67;9.27;;;;;;;;;;4885054;29;20045;-65
2023/04/07 02:44:18;;;;;;;23.48;12.00;;;;;;;;;;4889915;29;20061;-66
2023/04/07 02:46:44;;;;;;;21.02;10.90;;;;;;;;;;4877687;29;21676;-65
2023/04/07 02:49:11;;;;;;;18.45;10.02;;;;;;;;;;4883428;29;20052;-67
2023/04/07 02:51:37;;;;;;;18.13;10.23;;;;;;;;;;4889225;29;20056;-66
2023/04/07 02:54:03;;;;;;;19.65;10.90;;;;;;;;;;4882891;29;20053;-65
2023/04/07 02:56:31;;;;;;;20.85;10.30;;;;;;;;;;4890787;29;20057;-66
2023/04/07 02:58:57;;;;;;;22.90;10.80;;;;;;;;;;4879138;29;20061;-64
2023/04/07 03:01:24;;;;;;;22.02;10.68;;;;;;;;;;4882433;29;20048;-65
2023/04/07 03:03:50;;;;;;;21.02;10.30;;;;;;;;;;4879259;29;20430;-65
2023/04/07 03:06:17;;;;;;;19.35;11.68;;;;;;;;;;4881270;29;20053;-65
2023/04/07 03:08:43;;;;;;;19.98;10.45;;;;;;;;;;4883881;29;20055;-65
2023/04/07 03:11:10;;;;;;;19.63;10.48;;;;;;;;;;4882174;29;20048;-65
2023/04/07 03:13:36;;;;;;;23.85;10.50;;;;;;;;;;4885642;29;20059;-67
2023/04/07 03:16:03;;;;;;;18.58;10.57;;;;;;;;;;4872860;29;20052;-65
2023/04/07 03:18:29;;;;;;;21.23;10.70;;;;;;;;;;4883205;29;20060;-67
2023/04/07 03:20:55;;;;;;;19.75;11.00;;;;;;;;;;4881197;29;20058;-65
2023/04/07 03:23:22;;;;;;;18.98;10.90;;;;;;;;;;4884803;29;20089;-66
2023/04/07 03:25:49;;;;;;;22.58;10.73;;;;;;;;;;4884636;29;20136;-65
2023/04/07 03:28:15;;;;;;;20.15;9.93;;;;;;;;;;4884422;29;20063;-65
2023/04/07 03:30:42;;;;;;;16.23;10.07;;;;;;;;;;4884090;29;20052;-65
2023/04/07 03:33:08;;;;;;;19.40;10.82;;;;;;;;;;4883621;29;20095;-65
2023/04/07 03:35:35;;;;;;;18.63;10.63;;;;;;;;;;4881114;29;20089;-65
2023/04/07 03:38:01;;;;;;;18.35;10.20;;;;;;;;;;4875173;29;20053;-65
2023/04/07 03:40:28;;;;;;;17.92;9.50;;;;;;;;;;4884963;29;20466;-66
2023/04/07 03:42:54;;;;;;;17.95;10.75;;;;;;;;;;4883150;29;20059;-64
2023/04/07 03:45:20;;;;;;;21.42;11.30;;;;;;;;;;4876626;29;20061;-65
2023/04/07 03:47:47;;;;;;;24.23;11.65;;;;;;;;;;4889370;29;20052;-65
2023/04/07 03:50:13;;;;;;;20.05;10.45;;;;;;;;;;4883632;29;20052;-64
2023/04/07 03:52:39;;;;;;;21.67;10.85;;;;;;;;;;4889016;29;20060;-65
2023/04/07 03:55:06;;;;;;;21.33;11.38;;;;;;;;;;4882966;29;20051;-65
2023/04/07 03:57:33;;;;;;;21.65;11.52;;;;;;;;;;4884766;29;20569;-65
2023/04/07 03:59:59;;;;;;;28.42;11.75;;;;;;;;;;4880810;29;20074;-64
2023/04/07 04:02:25;;;;;;;21.38;11.93;;;;;;;;;;4878801;29;20052;-65
2023/04/07 04:04:52;;;;;;;28.65;12.45;;;;;;;;;;4889010;29;20044;-65
2023/04/07 04:07:18;;;;;;;25.15;12.73;;;;;;;;;;4875805;29;20072;-65
2023/04/07 04:09:45;;;;;;;23.40;12.68;;;;;;;;;;4877605;29;20053;-65
2023/04/07 04:12:11;;;;;;;26.20;12.93;;;;;;;;;;4883909;29;20056;-65
2023/04/07 04:14:37;;;;;;;20.85;12.65;;;;;;;;;;4876719;29;20052;-65
2023/04/07 04:17:04;;;;;;;29.05;11.65;;;;;;;;;;4876361;29;20048;-65
2023/04/07 04:19:31;;;;;;;22.80;12.93;;;;;;;;;;4878122;29;20052;-64
2023/04/07 04:21:57;;;;;;;23.23;14.23;;;;;;;;;;4883431;29;20485;-66
2023/04/07 04:24:24;;;;;;;24.45;12.75;;;;;;;;;;4876756;29;20644;-64
2023/04/07 04:26:50;;;;;;;26.77;13.52;;;;;;;;;;4878999;29;20094;-64
2023/04/07 04:29:16;;;;;;;25.02;14.38;;;;;;;;;;4886396;29;20044;-65
2023/04/07 04:31:43;;;;;;;24.73;12.10;;;;;;;;;;4877191;29;20053;-65
2023/04/07 04:34:09;;;;;;;22.88;13.10;;;;;;;;;;4888941;29;20667;-66
2023/04/07 04:36:36;;;;;;;27.83;13.55;;;;;;;;;;4881854;29;20140;-64
2023/04/07 04:39:03;;;;;;;31.55;13.57;;;;;;;;;;4859095;29;20059;-66
2023/04/07 04:41:30;;;;;;;23.35;12.77;;;;;;;;;;4877421;29;20723;-65
2023/04/07 04:43:56;;;;;;;24.55;13.00;;;;;;;;;;4886761;29;20052;-64
2023/04/07 04:46:23;;;;;;;25.30;13.32;;;;;;;;;;4889571;29;20519;-64
2023/04/07 04:48:51;;;;;;;29.60;12.73;;;;;;;;;;4886421;29;20078;-65
2023/04/07 04:51:17;;;;;;;24.17;12.93;;;;;;;;;;4888436;29;20409;-65
2023/04/07 04:53:44;;;;;;;20.70;12.38;;;;;;;;;;4880351;29;20049;-64
2023/04/07 04:56:10;;;;;;;22.08;13.25;;;;;;;;;;4892576;29;20053;-65
2023/04/07 04:58:39;;;;;;;22.40;12.20;;;;;;;;;;4884503;29;20060;-66
2023/04/07 05:01:05;;;;;;;;;;;;;;;;;;4883858;29;20095;-65
2023/04/07 05:03:31;;;;;;;24.45;12.48;;;;;;;;;;4892774;29;19970;-66
2023/04/07 05:05:58;;;;;;;29.33;13.15;;;;;;;;;;4875843;29;20072;-66
2023/04/07 05:08:24;;;;;;;23.45;12.40;;;;;;;;;;4886839;29;20052;-65
2023/04/07 05:10:51;;;;;;;31.98;13.30;;;;;;;;;;4885672;29;20052;-65
2023/04/07 05:13:17;;;;;;;33.97;13.70;;;;;;;;;;4892272;29;20057;-65
2023/04/07 05:15:43;;;;;;;27.88;12.38;;;;;;;;;;4885795;29;20053;-65
2023/04/07 05:18:10;;;;;;;27.23;12.48;;;;;;;;;;4891998;29;20063;-65
2023/04/07 05:20:36;;;;;;;27.95;12.75;;;;;;;;;;4884917;29;20053;-67
2023/04/07 05:23:02;;;;;;;21.55;11.05;;;;;;;;;;4875969;29;20081;-65
2023/04/07 05:25:29;;;;;;;26.77;12.23;;;;;;;;;;4891885;29;20422;-64
2023/04/07 05:27:57;;;;;;;25.70;12.15;;;;;;;;;;4885004;29;20622;-65
2023/04/07 05:30:23;;;;;;;24.40;11.75;;;;;;;;;;4888633;29;20048;-65
2023/04/07 05:32:49;;;;;;;20.10;11.40;;;;;;;;;;4874034;29;20052;-66
2023/04/07 05:35:16;;;;;;;27.42;11.82;;;;;;;;;;4884676;29;20507;-65
2023/04/07 05:37:42;;;;;;;25.38;11.07;;;;;;;;;;4889832;29;20048;-65
2023/04/07 05:40:09;;;;;;;20.02;11.38;;;;;;;;;;4885064;29;20048;-64
2023/04/07 05:42:35;;;;;;;20.85;10.57;;;;;;;;;;4885827;29;20049;-67
2023/04/07 05:45:02;;;;;;;21.02;11.00;;;;;;;;;;4884121;29;20433;-65
2023/04/07 05:47:28;;;;;;;26.98;11.85;;;;;;;;;;4878278;29;20044;-66
2023/04/07 05:49:54;;;;;;;20.48;9.98;;;;;;;;;;4879584;29;20052;-66
2023/04/07 05:52:21;;;;;;;21.92;10.95;;;;;;;;;;4884446;29;20052;-65
2023/04/07 05:54:47;;;;;;;23.58;11.05;;;;;;;;;;4891687;29;20049;-66
2023/04/07 05:57:13;;;;;;;27.30;10.80;;;;;;;;;;4875851;29;20674;-66
2023/04/07 05:59:40;;;;;;;22.38;9.18;;;;;;;;;;4883902;29;20059;-66
2023/04/07 06:02:06;;;;;;;26.23;11.02;;;;;;;;;;4870682;29;20064;-65
2023/04/07 06:04:34;;;;;;;24.25;11.18;;;;;;;;;;4888653;29;20164;-65
2023/04/07 06:07:03;;;;;;;26.20;11.02;;;;;;;;;;4887783;29;20147;-67
2023/04/07 06:09:30;;;;;;;25.63;11.32;;;;;;;;;;4885604;29;20064;-66
2023/04/07 06:11:57;;;;;;;27.27;10.80;;;;;;;;;;4890872;29;20075;-66
2023/04/07 06:14:24;;;;;;;31.15;10.65;;;;;;;;;;4880200;29;20072;-66
2023/04/07 06:16:50;;;;;;;22.80;10.85;;;;;;;;;;4889842;29;20494;-65
2023/04/07 06:19:17;;;;;;;22.63;11.60;;;;;;;;;;4883908;29;20137;-67
2023/04/07 06:21:43;;;;;;;23.38;11.23;;;;;;;;;;4889113;29;20063;-65
2023/04/07 06:24:10;;;;;;;24.27;11.27;;;;;;;;;;4882288;29;20071;-67
2023/04/07 06:26:36;;;;;;;26.42;11.02;;;;;;;;;;4882342;29;20107;-68
2023/04/07 06:29:02;;;;;;;24.30;11.13;;;;;;;;;;4876678;29;20056;-65
2023/04/07 06:31:29;;;;;;;28.40;12.68;;;;;;;;;;4875530;29;20542;-65
2023/04/07 06:33:55;;;;;;;20.92;10.40;;;;;;;;;;4886531;29;20757;-66
2023/04/07 06:36:22;;;;;;;25.83;11.00;;;;;;;;;;4888984;29;20059;-68
2023/04/07 06:38:49;;;;;;;23.83;11.13;;;;;;;;;;4887150;29;20048;-64
2023/04/07 06:41:18;;;;;;;20.77;10.88;;;;;;;;;;4886871;29;20067;-65
2023/04/07 06:43:50;;;;;;;25.45;11.70;;;;;;;;;;4871042;29;20052;-65
2023/04/07 06:46:16;;;;;;;18.75;10.55;;;;;;;;;;4875060;29;20057;-66
2023/04/07 06:48:43;;;;;;;18.65;10.60;;;;;;;;;;4884911;29;20055;-65
2023/04/07 06:51:09;;;;;;;32.92;11.82;;;;;;;;;;4884696;29;20049;-65
2023/04/07 06:53:36;;;;;;;19.40;9.13;;;;;;;;;;4865911;29;20053;-67
2023/04/07 06:56:03;;;;;;;26.63;10.18;;;;;;;;;;4881191;29;20159;-67
2023/04/07 06:58:30;;;;;;;16.63;8.63;;;;;;;;;;4878991;29;20052;-67
2023/04/07 07:00:56;;;;;;;14.88;7.75;;;;;;;;;;4876364;29;20049;-65
2023/04/07 07:03:22;;;;;;;15.30;8.05;;;;;;;;;;4888351;29;20049;-66
2023/04/07 07:05:51;;;;;;;17.92;8.05;;;;;;;;;;4884872;29;20044;-67
2023/04/07 07:08:20;;;;;;;17.27;7.00;;;;;;;;;;4889421;29;20093;-67
2023/04/07 07:10:46;;;;;;;14.48;7.50;;;;;;;;;;4875444;29;20750;-67
2023/04/07 07:13:13;;;;;;;15.98;7.82;;;;;;;;;;4890499;29;20059;-65
2023/04/07 07:15:39;;;;;;;13.90;5.85;;;;;;;;;;4882117;29;20056;-65
2023/04/07 07:18:05;;;;;;;11.45;6.40;;;;;;;;;;4881406;29;20135;-65
2023/04/07 07:20:32;;;;;;;13.20;7.05;;;;;;;;;;4895685;29;20489;-66
2023/04/07 07:22:58;;;;;;;14.07;7.15;;;;;;;;;;4878204;29;20049;-65
2023/04/07 07:25:28;;;;;;;15.05;7.28;;;;;;;;;;4880488;29;20053;-67
2023/04/07 07:27:54;;;;;;;15.73;6.57;;;;;;;;;;4888073;29;20560;-65
2023/04/07 07:30:21;;;;;;;11.38;6.70;;;;;;;;;;4887261;29;20175;-65
2023/04/07 07:32:48;;;;;;;11.77;6.32;;;;;;;;;;4889284;29;20052;-66
2023/04/07 07:35:14;;;;;;;14.77;6.35;;;;;;;;;;4884345;29;20116;-66
2023/04/07 07:37:43;;;;;;;18.02;6.50;;;;;;;;;;4883642;29;20055;-66
2023/04/07 07:40:09;;;;;;;13.13;5.32;;;;;;;;;;4874541;29;20426;-65
2023/04/07 07:42:36;;;;;;;12.30;5.75;;;;;;;;;;4883118;29;20132;-66
2023/04/07 07:45:03;;;;;;;10.13;5.20;;;;;;;;;;4882312;29;20045;-66
2023/04/07 07:47:29;;;;;;;11.32;4.68;;;;;;;;;;4889422;29;20501;-65
2023/04/07 07:49:56;;;;;;;7.85;4.57;;;;;;;;;;4885039;29;20081;-66
2023/04/07 07:52:22;;;;;;;7.90;4.00;;;;;;;;;;4877028;29;20143;-66
2023/04/07 07:54:49;;;;;;;11.10;4.88;;;;;;;;;;4879915;29;20053;-67
2023/04/07 07:57:15;;;;;;;12.82;4.43;;;;;;;;;;4877946;29;20056;-66
2023/04/07 07:59:42;;;;;;;7.32;4.60;;;;;;;;;;4877659;29;20064;-67
2023/04/07 08:02:08;;;;;;;7.38;4.32;;;;;;;;;;4874840;29;20130;-67
2023/04/07 08:04:35;;;;;;;10.98;4.32;;;;;;;;;;4883362;29;20076;-67
2023/04/07 08:07:05;;;;;;;9.25;4.45;;;;;;;;;;4884227;29;20059;-67
2023/04/07 08:09:31;;;;;;;8.48;4.10;;;;;;;;;;4881327;29;20081;-65
2023/04/07 08:11:58;;;;;;;8.23;3.88;;;;;;;;;;4883070;29;20131;-66
2023/04/07 08:14:25;;;;;;;7.80;3.83;;;;;;;;;;4880564;29;20112;-64
2023/04/07 08:16:54;;;;;;;13.60;4.72;;;;;;;;;;4882901;29;20120;-65
2023/04/07 08:19:24;;;;;;;9.55;4.22;;;;;;;;;;4885848;29;20056;-67
2023/04/07 08:21:51;;;;;;;8.68;4.20;;;;;;;;;;4880025;29;20064;-66
2023/04/07 08:24:17;;;;;;;7.70;4.05;;;;;;;;;;4875600;29;20086;-66
2023/04/07 08:26:44;;;;;;;6.47;4.13;;;;;;;;;;4884915;29;20060;-66
2023/04/07 08:29:11;;;;;;;9.20;4.10;;;;;;;;;;4882856;29;20052;-65
2023/04/07 08:31:37;;;;;;;7.15;3.97;;;;;;;;;;4878921;29;20596;-67
2023/04/07 08:34:04;;;;;;;7.25;3.78;;;;;;;;;;4884754;29;20587;-64
2023/04/07 08:36:33;;;;;;;7.05;4.07;;;;;;;;;;4884220;29;20053;-65
2023/04/07 08:39:01;;;;;;;9.75;4.30;;;;;;;;;;4882988;29;20053;-67
2023/04/07 08:41:38;;;;;;;12.30;4.70;;;;;;;;;;4880785;29;20143;-66
2023/04/07 08:44:05;;;;;;;10.23;4.50;;;;;;;;;;4885415;29;20056;-66
2023/04/07 08:46:32;;;;;;;8.10;4.25;;;;;;;;;;4884687;29;20049;-65
2023/04/07 08:49:00;;;;;;;9.15;4.85;;;;;;;;;;4884146;29;20838;-67
2023/04/07 08:51:27;;;;;;;6.93;4.00;;;;;;;;;;4883838;29;20052;-66
2023/04/07 08:53:59;;;;;;;9.00;4.07;;;;;;;;;;4877542;29;20084;-66
2023/04/07 08:56:26;;;;;;;11.07;4.93;;;;;;;;;;4885029;29;20580;-68
2023/04/07 08:58:53;;;;;;;8.98;4.25;;;;;;;;;;4874338;29;20056;-66
2023/04/07 09:01:20;;;;;;;10.68;4.78;;;;;;;;;;4884944;29;20064;-67
2023/04/07 09:03:47;;;;;;;8.40;3.58;;;;;;;;;;4884038;29;20080;-65
2023/04/07 09:06:14;;;;;;;8.27;4.65;;;;;;;;;;4884718;29;20167;-66
2023/04/07 09:08:41;;;;;;;8.30;3.80;;;;;;;;;;4884959;29;20056;-66
2023/04/07 09:11:07;;;;;;;8.57;4.25;;;;;;;;;;4884092;29;20734;-66
2023/04/07 09:13:34;;;;;;;9.77;5.35;;;;;;;;;;4884779;29;20053;-67
2023/04/07 09:16:01;;;;;;;11.25;5.65;;;;;;;;;;4882447;29;20179;-67
2023/04/07 09:18:27;;;;;;;12.98;5.60;;;;;;;;;;4883846;29;20052;-68
2023/04/07 09:20:54;;;;;;;13.38;5.85;;;;;;;;;;4880670;29;20052;-66
2023/04/07 09:23:30;;;;;;;11.00;7.05;;;;;;;;;;4882601;29;20167;-67
2023/04/07 09:25:58;;;;;;;11.07;6.72;;;;;;;;;;4880691;29;20409;-67
2023/04/07 09:28:36;;;;;;;9.73;6.20;;;;;;;;;;4883596;29;20139;-67
2023/04/07 09:31:03;;;;;;;19.25;7.72;;;;;;;;;;4881093;29;20056;-64
2023/04/07 09:33:29;;;;;;;11.07;6.18;;;;;;;;;;4884078;29;20044;-66
2023/04/07 09:35:56;;;;;;;13.60;6.63;;;;;;;;;;4881805;29;20092;-67
2023/04/07 09:38:31;;;;;;;11.68;6.05;;;;;;;;;;4880780;29;20130;-68
2023/04/07 09:41:10;;;;;;;13.02;6.22;;;;;;;;;;4884527;29;20111;-67
2023/04/07 09:43:38;;;;;;;10.95;5.07;;;;;;;;;;4881293;29;20243;-67
2023/04/07 09:46:17;;;;;;;8.93;5.57;;;;;;;;;;4887147;29;20056;-67
2023/04/07 09:48:44;;;;;;;10.98;5.65;;;;;;;;;;4887221;29;20049;-67
2023/04/07 09:51:12;;;;;;;11.57;4.97;;;;;;;;;;4886528;29;20152;-67
2023/04/07 09:53:47;;;;;;;10.32;5.57;;;;;;;;;;4886771;29;20056;-64
2023/04/07 09:56:23;;;;;;;14.60;5.60;;;;;;;;;;4886620;29;20167;-65
2023/04/07 09:58:52;;;;;;;13.35;5.28;;;;;;;;;;4886582;29;20535;-66
2023/04/07 10:01:20;;;;;;;12.27;5.45;;;;;;;;;;4887720;29;20472;-67
2023/04/07 10:03:49;;;;;;;8.25;5.07;;;;;;;;;;4886733;29;20159;-66
2023/04/07 10:06:18;;;;;;;13.50;5.80;;;;;;;;;;4875659;29;20084;-64
2023/04/07 10:08:44;;;;;;;12.75;5.30;;;;;;;;;;4878039;29;20079;-66
2023/04/07 10:11:11;;;;;;;14.38;5.47;;;;;;;;;;4899740;29;20167;-66
2023/04/07 10:13:38;;;;;;;9.32;4.88;;;;;;;;;;4874622;29;20051;-66
2023/04/07 10:16:06;;;;;;;10.60;4.65;;;;;;;;;;4883545;29;20132;-67
2023/04/07 10:18:33;;;;;;;13.00;5.78;;;;;;;;;;4884814;29;20144;-66
2023/04/07 10:21:01;;;;;;;9.20;4.35;;;;;;;;;;4885955;29;20056;-64
2023/04/07 10:23:34;;;;;;;10.38;4.93;;;;;;;;;;4886863;29;20052;-65
2023/04/07 10:26:01;;;;;;;10.63;5.55;;;;;;;;;;4890590;29;20500;-65
2023/04/07 10:28:29;;;;;;;14.65;5.57;;;;;;;;;;4880195;29;20092;-65
2023/04/07 10:30:56;;;;;;;12.48;4.75;;;;;;;;;;4887363;29;20052;-64
2023/04/07 10:33:41;;;;;;;9.60;5.38;;;;;;;;;;4875433;29;20458;-66
2023/04/07 10:36:08;;;;;;;10.18;4.88;;;;;;;;;;4884986;29;20059;-65
2023/04/07 10:38:35;;;;;;;12.43;6.07;;;;;;;;;;4878753;29;20152;-66
2023/04/07 10:41:21;;;;;;;14.00;5.13;;;;;;;;;;4884655;29;20108;-66
2023/04/07 10:43:51;;;;;;;13.15;5.10;;;;;;;;;;4886220;29;20063;-67
2023/04/07 10:46:18;;;;;;;15.98;5.75;;;;;;;;;;4877263;29;20058;-66
2023/04/07 10:49:04;;;;;;;9.45;4.72;;;;;;;;;;4867346;29;20061;-66
2023/04/07 10:51:31;;;;;;;9.88;4.95;;;;;;;;;;4885319;29;20048;-66
2023/04/07 10:54:16;;;;;;;10.45;4.90;;;;;;;;;;4879438;29;20109;-66
2023/04/07 10:57:01;;;;;;;9.50;4.50;;;;;;;;;;4886943;29;20071;-65
2023/04/07 10:59:31;;;;;;;15.27;4.38;;;;;;;;;;4884451;29;20084;-67
2023/04/07 11:02:13;;;;;;;6.68;3.80;;;;;;;;;;4878843;29;20059;-66
2023/04/07 11:04:44;;;;;;;10.15;3.63;;;;;;;;;;4874941;29;20048;-67
2023/04/07 11:07:12;;;;;;;12.20;4.20;;;;;;;;;;4879652;29;20083;-67
2023/04/07 11:09:39;;;;;;;9.45;4.68;;;;;;;;;;4883010;29;20620;-66
2023/04/07 11:12:06;;;;;;;8.50;3.90;;;;;;;;;;4883436;29;20057;-65
2023/04/07 11:14:36;;;;;;;11.93;3.88;;;;;;;;;;4897400;29;20049;-67
2023/04/07 11:17:02;;;;;;;9.05;3.75;;;;;;;;;;4881580;29;20048;-66
2023/04/07 11:19:30;;;;;;;6.07;3.88;;;;;;;;;;4882870;29;20057;-66
2023/04/07 11:22:12;;;;;;;7.00;3.85;;;;;;;;;;4880095;29;20053;-67
2023/04/07 11:24:54;;;;;;;9.35;4.28;;;;;;;;;;4882884;29;20279;-67
2023/04/07 11:27:21;;;;;;;9.13;4.70;;;;;;;;;;4885499;29;20060;-66
2023/04/07 11:29:47;;;;;;;9.45;4.38;;;;;;;;;;4885552;29;20124;-65
2023/04/07 11:32:13;;;;;;;11.65;5.18;;;;;;;;;;4885841;29;20060;-66
2023/04/07 11:34:40;;;;;;;9.77;4.60;;;;;;;;;;4883784;29;20052;-67
2023/04/07 11:37:20;;;;;;;12.52;5.50;;;;;;;;;;4885986;29;20650;-67
2023/04/07 11:39:53;;;;;;;11.50;4.80;;;;;;;;;;4885103;29;20529;-65
2023/04/07 11:42:35;;;;;;;7.75;4.22;;;;;;;;;;4883389;29;20068;-67
2023/04/07 11:45:02;;;;;;;10.88;5.03;;;;;;;;;;4886219;29;20454;-67
2023/04/07 11:47:35;;;;;;;10.30;4.75;;;;;;;;;;4885324;29;20048;-65
2023/04/07 11:50:01;;;;;;;10.68;5.13;;;;;;;;;;4884964;29;20068;-66
2023/04/07 11:52:28;;;;;;;8.10;4.70;;;;;;;;;;4879029;29;20058;-67
2023/04/07 11:54:54;;;;;;;9.05;4.88;;;;;;;;;;4884147;29;20064;-66
2023/04/07 11:57:24;;;;;;;11.85;5.18;;;;;;;;;;4885630;29;20056;-66
2023/04/07 12:00:04;;;;;;;9.90;4.28;;;;;;;;;;4884540;29;20058;-66
2023/04/07 12:02:31;;;;;;;10.40;4.80;;;;;;;;;;4884591;29;20053;-67
2023/04/07 12:04:57;;;;;;;9.43;4.95;;;;;;;;;;4885007;29;20049;-65
2023/04/07 12:07:24;;;;;;;9.98;5.05;;;;;;;;;;4884626;29;20116;-66
2023/04/07 12:09:53;;;;;;;10.77;5.05;;;;;;;;;;4893921;29;20048;-66
2023/04/07 12:12:27;;;;;;;11.57;5.60;;;;;;;;;;4883193;29;20056;-66
2023/04/07 12:14:54;;;;;;;9.85;5.65;;;;;;;;;;4884380;29;20055;-66
2023/04/07 12:17:26;;;;;;;12.90;5.43;;;;;;;;;;4877489;29;20100;-66
2023/04/07 12:19:53;;;;;;;10.73;5.85;;;;;;;;;;4875626;29;20168;-65
2023/04/07 12:22:19;;;;;;;8.85;5.00;;;;;;;;;;4882374;29;20552;-66
2023/04/07 12:24:45;;;;;;;9.40;5.60;;;;;;;;;;4878926;29;20364;-66
2023/04/07 12:27:12;;;;;;;11.20;5.57;;;;;;;;;;4883038;29;20747;-67
2023/04/07 12:29:39;;;;;;;10.45;5.88;;;;;;;;;;4880207;29;20707;-66
2023/04/07 12:32:05;;;;;;;9.43;5.68;;;;;;;;;;4880971;29;20053;-66
2023/04/07 12:34:33;;;;;;;12.23;5.65;;;;;;;;;;4879482;29;20056;-66
2023/04/07 12:37:00;;;;;;;9.57;5.60;;;;;;;;;;4880118;29;20545;-65
2023/04/07 12:39:27;;;;;;;11.00;5.72;;;;;;;;;;4874887;29;20133;-65
2023/04/07 12:41:53;;;;;;;11.30;5.63;;;;;;;;;;4879661;29;20049;-65
2023/04/07 12:44:19;;;;;;;11.82;5.70;;;;;;;;;;4883324;29;20052;-66
2023/04/07 12:46:46;;;;;;;9.05;5.63;;;;;;;;;;4873813;29;20047;-65
2023/04/07 12:49:12;;;;;;;11.02;5.78;;;;;;;;;;4886120;29;20693;-65
2023/04/07 12:51:39;;;;;;;10.52;6.18;;;;;;;;;;4877581;29;20738;-65
2023/04/07 12:54:05;;;;;;;11.35;6.07;;;;;;;;;;4885236;29;20671;-66
2023/04/07 12:56:32;;;;;;;8.60;5.47;;;;;;;;;;4881389;29;20048;-65
2023/04/07 12:58:58;;;;;;;9.82;5.28;;;;;;;;;;4879276;29;20052;-66
2023/04/07 13:01:24;;;;;;;8.65;5.43;;;;;;;;;;4871632;29;20426;-66
2023/04/07 13:03:51;;;;;;;10.15;5.78;;;;;;;;;;4872627;29;20491;-65
2023/04/07 13:06:18;;;;;;;8.63;5.05;;;;;;;;;;4875997;29;20053;-65
2023/04/07 13:08:44;;;;;;;10.30;4.90;;;;;;;;;;4875634;29;20061;-64
2023/04/07 13:11:10;;;;;;;10.50;5.60;;;;;;;;;;4885538;29;20052;-64
2023/04/07 13:13:37;;;;;;;12.90;5.45;;;;;;;;;;4887260;29;20493;-66
2023/04/07 13:16:03;;;;;;;9.13;4.93;;;;;;;;;;4887187;29;20051;-66
2023/04/07 13:18:30;;;;;;;7.55;4.53;;;;;;;;;;4887546;29;20062;-66
2023/04/07 13:20:56;;;;;;;11.50;4.93;;;;;;;;;;4885667;29;20056;-67
2023/04/07 13:23:42;;;;;;;12.82;5.78;;;;;;;;;;4886974;29;20058;-65
2023/04/07 13:26:09;;;;;;;11.65;5.45;;;;;;;;;;4887323;29;20052;-67
2023/04/07 13:28:36;;;;;;;8.82;4.20;;;;;;;;;;4888795;29;20060;-66
2023/04/07 13:31:02;;;;;;;9.52;4.63;;;;;;;;;;4888169;29;20330;-67
2023/04/07 13:33:29;;;;;;;11.68;4.40;;;;;;;;;;4888041;29;20063;-66
2023/04/07 13:35:56;;;;;;;7.68;3.80;;;;;;;;;;4888525;29;21017;-67
2023/04/07 13:38:22;;;;;;;7.57;4.65;;;;;;;;;;4887393;29;20111;-66
2023/04/07 13:40:48;;;;;;;13.65;4.80;;;;;;;;;;4880552;29;20076;-66
2023/04/07 13:43:17;;;;;;;8.95;4.82;;;;;;;;;;4872224;29;20085;-66
2023/04/07 13:45:43;;;;;;;9.48;4.70;;;;;;;;;;4896435;29;20092;-67
2023/04/07 13:48:10;;;;;;;17.20;5.75;;;;;;;;;;4885012;29;20068;-66
2023/04/07 13:50:37;;;;;;;11.23;5.40;;;;;;;;;;4877184;29;20053;-66
2023/04/07 13:53:03;;;;;;;11.18;4.72;;;;;;;;;;4882360;29;20144;-65
2023/04/07 13:55:30;;;;;;;9.98;5.50;;;;;;;;;;4884421;29;20136;-65
2023/04/07 13:57:56;;;;;;;8.27;5.22;;;;;;;;;;4873191;29;20132;-65
2023/04/07 14:00:23;;;;;;;13.63;5.35;;;;;;;;;;4880256;29;20399;-66
2023/04/07 14:02:49;;;;;;;10.32;4.63;;;;;;;;;;4885300;29;20107;-64
2023/04/07 14:05:16;;;;;;;10.07;4.40;;;;;;;;;;4885561;29;20289;-66
2023/04/07 14:07:42;;;;;;;8.82;4.55;;;;;;;;;;4885842;29;20135;-70
2023/04/07 14:10:09;;;;;;;13.10;4.90;;;;;;;;;;4887416;29;20051;-65
2023/04/07 14:12:36;;;;;;;8.70;4.38;;;;;;;;;;4887133;29;20143;-65
2023/04/07 14:15:03;;;;;;;9.82;4.72;;;;;;;;;;4888505;29;20052;-65
2023/04/07 14:17:29;;;;;;;7.78;4.25;;;;;;;;;;4887000;29;20462;-65
2023/04/07 14:19:56;;;;;;;10.10;4.13;;;;;;;;;;4885985;29;20128;-66
2023/04/07 14:22:22;;;;;;;10.80;4.35;;;;;;;;;;4885082;29;20769;-66
2023/04/07 14:24:49;;;;;;;12.68;3.95;;;;;;;;;;4886995;29;20793;-65
2023/04/07 14:27:19;;;;;;;9.57;4.10;;;;;;;;;;4899523;29;20171;-65
2023/04/07 14:29:47;;;;;;;6.32;3.60;;;;;;;;;;4886845;29;20056;-65
2023/04/07 14:32:14;;;;;;;7.57;3.85;;;;;;;;;;4885390;29;20060;-65